»·PEaware :: FFT234 KCPR-KDEN

FFT234 :: KCPR-KDEN

FLIGHT INFORMATION

Flight Status: Arrived
Operator:
Frontier Airlines
More flights by this operator :: More flights under this callsign
Pilot: Peter H. (12565)
Aircraft: AIRBUS A320
(A320)
More flights by this aircraft type
Origin: KCPR Natrona Co Intl
United States
Destination: KDEN Denver Intl
United States
More flights between these airports :: More routes between these airports
Route: +CPR3 DDY WOOKY TSHNR2
File this flight plan on PilotEdge
Remarks:
Altitude:
(Current/Filed)
23,000ft
Speed:
(Current/Filed)
450kts
Departed: 11-May-18 12:45 PM
Arrived: 11-May-18 01:28 PM
Distance/Time
Traveled:
200nm/0:43
Distance/Time
To Go:
Arrived

Flight Plot

Page will automatically refresh every two minutes.

Flight plan parsing failed; only flown route is shown


Map Options




Map Legend


Flown Route
Filed Route
Departure Airport
Arrival Airport
Navaid (VOR, NDB)
Fix

Horizontal Profiles

Position Reports

Time Latitude Longitude Heading Altitude Ground
Speed
11-May-18 12:04 42.902671 -106.459529 316 5331ft 0kts
11-May-18 12:05 42.902671 -106.459529 316 5331ft 0kts
11-May-18 12:06 42.902671 -106.459529 316 5331ft 0kts
11-May-18 12:07 42.902671 -106.459529 316 5331ft 0kts
11-May-18 12:08 42.902671 -106.459529 316 5331ft 0kts
11-May-18 12:09 42.902671 -106.459529 316 5331ft 0kts
11-May-18 12:10 42.902671 -106.459529 316 5331ft 0kts
11-May-18 12:11 42.902671 -106.459529 316 5331ft 0kts
11-May-18 12:12 42.902671 -106.459529 316 5331ft 0kts
11-May-18 12:13 42.902671 -106.459529 316 5331ft 0kts
11-May-18 12:14 42.903566 -106.458334 316 5334ft 0kts
11-May-18 12:15 42.903566 -106.458334 316 5334ft 0kts
11-May-18 12:16 42.903566 -106.458334 316 5334ft 0kts
11-May-18 12:17 42.903566 -106.458334 316 5334ft 0kts
11-May-18 12:18 42.903566 -106.458334 316 5334ft 0kts
11-May-18 12:19 42.903566 -106.458334 316 5334ft 0kts
11-May-18 12:20 42.903566 -106.458334 316 5334ft 0kts
11-May-18 12:25 42.903566 -106.458334 316 5334ft 0kts
11-May-18 12:26 42.903566 -106.458334 316 5334ft 0kts
11-May-18 12:27 42.903566 -106.458334 316 5334ft 0kts
11-May-18 12:28 42.903566 -106.458334 316 5334ft 0kts
11-May-18 12:29 42.903566 -106.458334 316 5334ft 0kts
11-May-18 12:30 42.903566 -106.458334 316 5334ft 0kts
11-May-18 12:31 42.903566 -106.458334 316 5334ft 0kts
11-May-18 12:32 42.903566 -106.458334 316 5334ft 0kts
11-May-18 12:33 42.903566 -106.458334 316 5334ft 0kts
11-May-18 12:34 42.903566 -106.458334 316 5334ft 0kts
11-May-18 12:35 42.903566 -106.458334 316 5334ft 0kts
11-May-18 12:36 42.903566 -106.458334 316 5334ft 0kts
11-May-18 12:37 42.903566 -106.458334 316 5334ft 0kts
11-May-18 12:38 42.903566 -106.458334 316 5334ft 0kts
11-May-18 12:39 42.903566 -106.458334 316 5334ft 0kts
11-May-18 12:40 42.903688 -106.458471 330 5334ft 4kts
11-May-18 12:41 42.904626 -106.457729 42 5334ft 8kts
11-May-18 12:42 42.905888 -106.455581 63 5336ft 3kts
11-May-18 12:43 42.906211 -106.453726 72 5336ft 2kts
11-May-18 12:44 42.908775 -106.450593 321 5332ft 4kts
11-May-18 12:45 42.908900 -106.477622 263 5810ft 175kts
11-May-18 12:46 42.908613 -106.559338 278 8571ft 249kts
11-May-18 12:47 42.953722 -106.625499 0 11858ft 275kts
11-May-18 12:48 43.004767 -106.553628 63 14350ft 316kts
11-May-18 12:49 43.040255 -106.427330 82 15298ft 398kts
11-May-18 12:50 42.999201 -106.287538 147 16220ft 424kts
11-May-18 12:51 42.889858 -106.248207 178 17848ft 420kts
11-May-18 12:52 42.773128 -106.231432 178 19509ft 429kts
11-May-18 12:53 42.657453 -106.195756 169 21040ft 442kts
11-May-18 12:54 42.539723 -106.150902 169 22327ft 451kts
11-May-18 12:55 42.420445 -106.105860 169 22919ft 459kts
11-May-18 12:56 42.299677 -106.060437 169 22921ft 460kts
11-May-18 12:57 42.178125 -106.014919 169 22947ft 461kts
11-May-18 12:58 42.058912 -105.970450 169 22906ft 459kts
11-May-18 12:59 41.939950 -105.926271 169 22980ft 461kts
11-May-18 13:00 41.829368 -105.885345 169 23028ft 461kts
11-May-18 13:01 41.715240 -105.843258 169 22906ft 460kts
11-May-18 13:02 41.593267 -105.798454 169 22920ft 461kts
11-May-18 13:03 41.472056 -105.754103 169 22921ft 461kts
11-May-18 13:04 41.351700 -105.704534 165 22920ft 464kts
11-May-18 13:05 41.250384 -105.669185 170 22921ft 459kts
11-May-18 13:06 41.129100 -105.626702 170 22921ft 460kts
11-May-18 13:07 41.006749 -105.583366 170 22921ft 458kts
11-May-18 13:08 40.890579 -105.542282 170 22920ft 458kts
11-May-18 13:09 40.774643 -105.501340 170 21636ft 442kts
11-May-18 13:10 40.660070 -105.461080 169 19066ft 425kts
11-May-18 13:11 40.571059 -105.379429 128 17851ft 407kts
11-May-18 13:12 40.508562 -105.263218 132 17379ft 382kts
11-May-18 13:13 40.443045 -105.168283 167 15725ft 334kts
11-May-18 13:14 40.363400 -105.138417 169 14052ft 301kts
11-May-18 13:15 40.288160 -105.112147 168 12383ft 299kts
11-May-18 13:16 40.210538 -105.090367 169 11090ft 281kts
11-May-18 13:17 40.143946 -105.074124 169 10031ft 247kts
11-May-18 13:18 40.083759 -105.061843 169 9112ft 241kts
11-May-18 13:19 40.019639 -105.050521 169 9108ft 247kts
11-May-18 13:20 39.960101 -105.010558 138 8119ft 244kts
11-May-18 13:21 39.911026 -104.961640 139 8037ft 206kts
11-May-18 13:22 39.879088 -104.919099 107 8010ft 178kts
11-May-18 13:23 39.864558 -104.870454 123 7646ft 144kts
11-May-18 13:24 39.846015 -104.828878 107 6828ft 131kts
11-May-18 13:25 39.841390 -104.783682 88 6264ft 130kts
11-May-18 13:26 39.841196 -104.739038 90 5666ft 127kts
11-May-18 13:27 39.840869 -104.703400 90 5443ft 60kts
11-May-18 13:28 39.842823 -104.694600 36 5443ft 20kts
11-May-18 13:29 39.847903 -104.688737 28 5443ft 20kts

Navigation Log

Ident Type
Flight plan parsing failed, navigation log unavailable